createdAt,value
2018-09-14T00:01:03.757Z,16.80
2018-09-14T00:03:32.591Z,14.20
2018-09-14T00:06:01.434Z,14.93
2018-09-14T00:08:30.184Z,17.80
2018-09-14T00:10:59.006Z,16.73
2018-09-14T00:13:27.937Z,18.33
2018-09-14T00:15:56.803Z,17.90
2018-09-14T00:18:25.561Z,17.30
2018-09-14T00:20:54.808Z,16.67
2018-09-14T00:23:23.747Z,18.30
2018-09-14T00:25:52.602Z,18.63
2018-09-14T00:28:21.508Z,16.93
2018-09-14T00:30:50.599Z,17.97
2018-09-14T00:33:19.589Z,19.30
2018-09-14T00:35:48.589Z,18.07
2018-09-14T00:38:17.369Z,18.30
2018-09-14T00:40:46.400Z,22.27
2018-09-14T00:43:15.314Z,23.67
2018-09-14T00:45:44.016Z,23.23
2018-09-14T00:48:13.143Z,24.73
2018-09-14T00:50:41.774Z,23.70
2018-09-14T00:53:10.653Z,24.40
2018-09-14T00:55:40.025Z,21.60
2018-09-14T00:58:08.936Z,18.47
2018-09-14T01:00:37.929Z,21.07
2018-09-14T01:03:06.672Z,29.80
2018-09-14T01:05:35.531Z,27.90
2018-09-14T01:08:04.656Z,33.07
2018-09-14T01:10:33.543Z,32.43
2018-09-14T01:15:53.033Z,39.00
2018-09-14T01:18:22.715Z,40.63
2018-09-14T01:20:51.494Z,42.13
2018-09-14T01:23:20.376Z,37.80
2018-09-14T01:25:49.423Z,41.23
2018-09-14T01:28:18.201Z,37.43
2018-09-14T01:30:47.962Z,40.20
2018-09-14T01:33:16.824Z,35.20
2018-09-14T01:35:50.633Z,41.73
2018-09-14T01:38:19.500Z,37.20
2018-09-14T01:40:49.275Z,44.07
2018-09-14T01:43:18.039Z,42.60
2018-09-14T01:45:46.822Z,43.70
2018-09-14T01:48:15.724Z,40.77
2018-09-14T01:50:44.530Z,49.40
2018-09-14T01:53:13.298Z,50.00
2018-09-14T01:55:42.229Z,37.67
2018-09-14T01:58:10.974Z,42.53
2018-09-14T02:00:39.919Z,48.57
2018-09-14T02:03:09.785Z,49.33
2018-09-14T02:05:38.717Z,50.57
2018-09-14T02:08:07.570Z,48.20
2018-09-14T02:10:36.970Z,45.90
2018-09-14T02:13:05.825Z,48.40
2018-09-14T02:15:34.934Z,49.33
2018-09-14T02:18:03.900Z,48.10
2018-09-14T02:20:32.827Z,47.50
2018-09-14T02:23:01.737Z,39.93
2018-09-14T02:25:31.221Z,43.53
2018-09-14T02:28:00.095Z,42.33
2018-09-14T02:30:29.097Z,47.57
2018-09-14T02:32:57.839Z,43.87
2018-09-14T02:35:26.761Z,48.10
2018-09-14T02:37:55.803Z,49.10
2018-09-14T02:40:25.430Z,47.23
2018-09-14T02:42:54.373Z,37.23
2018-09-14T02:45:23.384Z,44.53
2018-09-14T02:47:52.842Z,47.03
2018-09-14T02:50:21.966Z,50.90
2018-09-14T02:52:50.842Z,46.10
2018-09-14T02:55:19.886Z,48.93
2018-09-14T02:57:48.555Z,42.67
2018-09-14T03:00:17.292Z,50.63
2018-09-14T03:02:46.117Z,52.67
2018-09-14T03:05:15.036Z,43.80
2018-09-14T03:07:44.415Z,51.33
2018-09-14T03:10:13.095Z,42.23
2018-09-14T03:12:42.023Z,55.53
2018-09-14T03:15:10.793Z,51.07
2018-09-14T03:17:40.294Z,50.50
2018-09-14T03:20:09.190Z,47.50
2018-09-14T03:22:38.532Z,48.90
2018-09-14T03:25:07.537Z,46.47
2018-09-14T03:27:36.508Z,47.10
2018-09-14T03:30:05.556Z,52.70
2018-09-14T03:32:34.640Z,47.03
2018-09-14T03:35:03.911Z,44.93
2018-09-14T03:37:32.875Z,45.00
2018-09-14T03:40:02.647Z,52.40
2018-09-14T03:42:31.513Z,53.23
2018-09-14T03:45:00.451Z,45.30
2018-09-14T03:47:29.494Z,53.47
2018-09-14T03:49:58.354Z,54.00
2018-09-14T03:52:27.364Z,49.80
2018-09-14T03:54:56.316Z,51.13
2018-09-14T03:57:25.304Z,44.67
2018-09-14T03:59:54.264Z,49.97
2018-09-14T04:02:23.307Z,49.87
2018-09-14T04:04:52.103Z,50.73
2018-09-14T04:07:21.723Z,52.60
2018-09-14T04:09:50.690Z,53.17
2018-09-14T04:12:19.545Z,51.43
2018-09-14T04:14:48.943Z,48.13
2018-09-14T04:17:17.841Z,46.10
2018-09-14T04:19:46.608Z,49.83
2018-09-14T04:22:15.527Z,49.47
2018-09-14T04:24:44.180Z,46.40
2018-09-14T04:27:12.983Z,41.73
2018-09-14T04:29:41.929Z,48.97
2018-09-14T04:32:10.866Z,47.20
2018-09-14T04:34:39.604Z,49.03
2018-09-14T04:37:08.664Z,47.00
2018-09-14T04:39:37.439Z,45.93
2018-09-14T04:42:06.482Z,42.40
2018-09-14T04:44:41.554Z,38.87
2018-09-14T04:47:10.335Z,41.33
2018-09-14T04:49:39.350Z,39.07
2018-09-14T04:52:08.449Z,40.63
2018-09-14T04:54:37.393Z,43.57
2018-09-14T04:57:06.531Z,45.40
2018-09-14T04:59:35.856Z,42.60
2018-09-14T05:02:04.802Z,44.67
2018-09-14T05:04:33.745Z,45.70
2018-09-14T05:07:02.608Z,47.80
2018-09-14T05:09:31.656Z,41.50
2018-09-14T05:12:01.197Z,46.27
2018-09-14T05:14:30.173Z,42.87
2018-09-14T05:17:03.720Z,46.20
2018-09-14T05:19:32.725Z,46.70
2018-09-14T05:22:01.408Z,44.63
2018-09-14T05:24:30.304Z,37.87
2018-09-14T05:26:59.222Z,44.70
2018-09-14T05:29:28.610Z,45.63
2018-09-14T05:31:57.491Z,43.80
2018-09-14T05:34:26.349Z,46.90
2018-09-14T05:36:55.310Z,44.00
2018-09-14T05:39:25.574Z,50.60
2018-09-14T05:41:55.805Z,46.23
2018-09-14T05:44:24.522Z,48.00
2018-09-14T05:46:53.481Z,46.47
2018-09-14T05:49:22.379Z,46.17
2018-09-14T05:51:51.627Z,47.83
2018-09-14T05:54:20.592Z,47.20
2018-09-14T05:56:49.489Z,43.97
2018-09-14T05:59:18.321Z,45.97
2018-09-14T06:01:47.323Z,42.73
2018-09-14T06:04:16.131Z,45.97
2018-09-14T06:06:45.113Z,45.30
2018-09-14T06:09:14.423Z,40.40
2018-09-14T06:11:43.794Z,43.43
2018-09-14T06:14:12.987Z,42.97
2018-09-14T06:16:41.783Z,44.03
2018-09-14T06:19:10.678Z,38.33
2018-09-14T06:21:39.698Z,50.87
2018-09-14T06:24:08.642Z,46.27
2018-09-14T06:26:37.499Z,44.43
2018-09-14T06:29:06.918Z,44.60
2018-09-14T06:31:35.759Z,41.30
2018-09-14T06:34:05.303Z,43.03
2018-09-14T06:36:34.518Z,42.17
2018-09-14T06:39:03.668Z,44.60
2018-09-14T06:41:32.618Z,36.03
2018-09-14T06:44:01.570Z,39.80
2018-09-14T06:46:30.306Z,43.73
2018-09-14T06:48:59.438Z,42.70
2018-09-14T06:51:28.334Z,42.50
2018-09-14T06:53:57.300Z,28.63
2018-09-14T06:56:26.207Z,43.17
2018-09-14T06:58:55.526Z,42.47
2018-09-14T07:01:24.524Z,36.53
2018-09-14T07:03:53.942Z,47.47
2018-09-14T07:06:22.875Z,41.90
2018-09-14T07:08:52.456Z,38.70
2018-09-14T07:11:21.606Z,43.90
2018-09-14T07:13:50.665Z,40.30
2018-09-14T07:16:19.963Z,44.40
2018-09-14T07:18:49.015Z,44.40
2018-09-14T07:21:17.950Z,43.90
2018-09-14T07:23:46.962Z,46.93
2018-09-14T07:26:15.900Z,47.80
2018-09-14T07:28:44.781Z,43.43
2018-09-14T07:31:13.718Z,45.50
2018-09-14T07:33:42.885Z,45.47
2018-09-14T07:36:11.892Z,44.70
2018-09-14T07:38:40.837Z,44.07
2018-09-14T07:41:09.842Z,45.50
2018-09-14T07:43:38.750Z,37.57
2018-09-14T07:46:07.751Z,46.97
2018-09-14T07:48:36.735Z,43.17
2018-09-14T07:51:05.714Z,41.00
2018-09-14T07:53:34.634Z,44.73
2018-09-14T07:56:03.590Z,42.27
2018-09-14T07:58:32.563Z,46.30
2018-09-14T08:01:01.707Z,44.43
2018-09-14T08:03:30.689Z,45.80
2018-09-14T08:06:00.015Z,42.93
2018-09-14T08:08:28.973Z,44.90
2018-09-14T08:10:58.017Z,43.80
2018-09-14T08:13:27.070Z,42.33
2018-09-14T08:15:56.028Z,38.90
2018-09-14T08:18:25.169Z,40.47
2018-09-14T08:20:54.117Z,38.00
2018-09-14T08:23:24.186Z,43.40
2018-09-14T08:25:53.072Z,42.37
2018-09-14T08:28:22.078Z,42.73
2018-09-14T08:30:51.415Z,43.57
2018-09-14T08:33:20.285Z,37.10
2018-09-14T08:35:49.090Z,42.53
2018-09-14T08:38:18.072Z,37.13
2018-09-14T08:40:47.116Z,37.50
2018-09-14T08:43:15.990Z,39.27
2018-09-14T08:45:44.784Z,37.80
2018-09-14T08:48:14.226Z,37.90
2018-09-14T08:50:43.195Z,41.90
2018-09-14T08:53:12.038Z,43.90
2018-09-14T08:55:40.951Z,39.20
2018-09-14T08:58:09.948Z,45.20
2018-09-14T09:00:38.830Z,46.60
2018-09-14T09:03:07.843Z,38.27
2018-09-14T09:05:37.577Z,42.23
2018-09-14T09:08:06.703Z,45.40
2018-09-14T09:10:35.938Z,45.57
2018-09-14T09:13:04.939Z,45.57
2018-09-14T09:15:33.835Z,44.20
2018-09-14T09:18:02.719Z,44.87
2018-09-14T09:20:31.724Z,41.50
2018-09-14T09:23:00.958Z,39.67
2018-09-14T09:25:29.947Z,34.20
2018-09-14T09:27:58.650Z,41.43
2018-09-14T09:30:27.572Z,43.20
2018-09-14T09:32:56.468Z,45.10
2018-09-14T09:35:25.303Z,43.70
2018-09-14T09:37:54.229Z,39.13
2018-09-14T09:40:23.259Z,43.60
2018-09-14T09:42:52.049Z,40.93
2018-09-14T09:45:20.962Z,41.60
2018-09-14T09:47:49.797Z,36.00
2018-09-14T09:50:18.738Z,43.57
2018-09-14T09:52:47.523Z,38.67
2018-09-14T09:55:16.411Z,41.33
2018-09-14T09:57:45.421Z,41.20
2018-09-14T10:00:19.524Z,37.67
2018-09-14T10:03:52.316Z,37.47
2018-09-14T10:06:24.017Z,39.63
2018-09-14T10:08:54.048Z,40.27
2018-09-14T10:11:23.045Z,38.53
2018-09-14T10:13:52.896Z,41.30
2018-09-14T10:16:21.781Z,34.67
2018-09-14T10:18:50.663Z,39.43
2018-09-14T10:21:19.488Z,37.50
2018-09-14T10:23:48.557Z,40.00
2018-09-14T10:26:17.531Z,37.97
2018-09-14T10:28:46.581Z,36.00
2018-09-14T10:31:15.489Z,33.07
2018-09-14T10:33:44.493Z,36.03
2018-09-14T10:36:13.469Z,32.93
2018-09-14T10:38:42.928Z,20.47
2018-09-14T10:41:12.975Z,35.77
2018-09-14T10:43:42.016Z,37.40
2018-09-14T10:46:10.777Z,39.07
2018-09-14T10:48:39.627Z,22.00
2018-09-14T10:51:08.394Z,36.90
2018-09-14T10:53:37.314Z,36.60
2018-09-14T10:56:06.720Z,39.30
2018-09-14T10:58:41.035Z,42.20
2018-09-14T11:01:11.957Z,38.10
2018-09-14T11:03:41.946Z,42.70
2018-09-14T11:06:11.733Z,34.83
2018-09-14T11:08:40.791Z,39.90
2018-09-14T11:11:10.637Z,38.77
2018-09-14T11:13:39.685Z,36.77
2018-09-14T11:16:09.262Z,37.60
2018-09-14T11:18:38.690Z,38.07
2018-09-14T11:21:08.787Z,39.30
2018-09-14T11:23:37.899Z,36.63
2018-09-14T11:26:06.720Z,40.33
2018-09-14T11:28:35.506Z,35.37
2018-09-14T11:31:04.608Z,36.13
2018-09-14T11:33:33.774Z,37.07
2018-09-14T11:36:02.715Z,34.73
2018-09-14T11:38:31.583Z,31.90
2018-09-14T11:41:00.543Z,36.60
2018-09-14T11:43:30.029Z,32.20
2018-09-14T11:45:59.764Z,22.03
2018-09-14T11:48:28.772Z,33.13
2018-09-14T11:50:58.205Z,33.70
2018-09-14T11:53:27.741Z,34.10
2018-09-14T11:55:56.527Z,35.43
2018-09-14T11:58:25.448Z,34.73
2018-09-14T12:00:54.505Z,34.40
2018-09-14T12:03:23.672Z,32.87
2018-09-14T12:05:52.563Z,33.17
2018-09-14T12:08:21.302Z,33.67
2018-09-14T12:10:50.764Z,32.37
2018-09-14T12:13:19.820Z,33.13
2018-09-14T12:15:49.272Z,27.43
2018-09-14T12:18:18.837Z,24.27
2018-09-14T12:20:47.732Z,28.20
2018-09-14T12:23:16.822Z,29.90
2018-09-14T12:25:45.881Z,24.50
2018-09-14T12:28:16.304Z,45.40
2018-09-14T12:30:45.214Z,29.27
2018-09-14T12:33:14.118Z,29.63
2018-09-14T12:35:43.553Z,30.10
2018-09-14T12:38:13.388Z,32.20
2018-09-14T12:40:42.960Z,32.27
2018-09-14T12:43:12.058Z,29.60
2018-09-14T12:45:41.093Z,30.20
2018-09-14T12:48:10.146Z,29.13
2018-09-14T12:50:39.150Z,29.37
2018-09-14T12:53:08.039Z,31.30
2018-09-14T12:55:36.953Z,29.80
2018-09-14T12:58:05.787Z,27.90
2018-09-14T13:00:34.777Z,24.23
2018-09-14T13:03:04.265Z,26.53
2018-09-14T13:05:33.355Z,26.63
2018-09-14T13:08:03.475Z,25.20
2018-09-14T13:10:32.797Z,25.33
2018-09-14T13:13:01.809Z,26.13
2018-09-14T13:15:30.872Z,23.23
2018-09-14T13:17:59.839Z,23.77
2018-09-14T13:20:29.074Z,17.10
2018-09-14T13:22:57.859Z,19.63
2018-09-14T13:25:27.337Z,16.23
2018-09-14T13:27:56.409Z,16.87
2018-09-14T13:30:25.474Z,17.47
2018-09-14T13:32:54.848Z,17.07
2018-09-14T13:35:24.778Z,15.97
2018-09-14T13:37:54.407Z,19.40
2018-09-14T13:40:23.544Z,19.33
2018-09-14T13:42:52.615Z,16.90
2018-09-14T13:45:21.581Z,19.57
2018-09-14T13:47:50.541Z,16.13
2018-09-14T13:50:19.681Z,16.30
2018-09-14T13:52:49.064Z,13.43
2018-09-14T13:55:18.191Z,12.70
2018-09-14T13:57:48.172Z,13.27
2018-09-14T14:00:17.261Z,14.27
2018-09-14T14:02:46.417Z,12.50
2018-09-14T14:05:15.403Z,11.97
2018-09-14T14:07:44.484Z,32.93
2018-09-14T14:13:06.494Z,14.20
2018-09-14T14:15:35.334Z,23.23
2018-09-14T14:18:04.891Z,20.70
2018-09-14T14:20:33.806Z,23.30
2018-09-14T14:23:02.970Z,21.10
2018-09-14T14:25:31.618Z,21.77
2018-09-14T14:28:00.665Z,21.00
2018-09-14T14:30:29.544Z,19.60
2018-09-14T14:32:58.547Z,19.53
2018-09-14T14:35:27.542Z,18.93
2018-09-14T14:37:56.460Z,19.80
2018-09-14T14:40:25.441Z,18.37
2018-09-14T14:42:54.421Z,19.87
2018-09-14T14:45:23.329Z,21.37
2018-09-14T14:47:52.265Z,22.33
2018-09-14T14:50:21.308Z,24.20
2018-09-14T14:52:50.939Z,22.10
2018-09-14T14:55:20.184Z,25.97
2018-09-14T14:57:49.094Z,23.43
2018-09-14T15:00:18.023Z,23.60
2018-09-14T15:02:46.983Z,21.70
2018-09-14T15:05:15.952Z,25.73
2018-09-14T15:07:44.964Z,19.83
2018-09-14T15:10:14.053Z,17.80
2018-09-14T15:12:43.007Z,22.80
2018-09-14T15:15:12.045Z,22.67
2018-09-14T15:17:41.022Z,21.67
2018-09-14T15:20:09.902Z,18.40
2018-09-14T15:22:39.697Z,22.07
2018-09-14T15:25:08.790Z,19.20
2018-09-14T15:27:37.575Z,22.00
2018-09-14T15:30:06.584Z,19.17
2018-09-14T15:32:36.186Z,22.20
2018-09-14T15:35:07.068Z,18.80
2018-09-14T15:37:35.989Z,17.90
2018-09-14T15:40:04.929Z,20.63
2018-09-14T15:42:33.794Z,19.50
2018-09-14T15:45:02.510Z,18.57
2018-09-14T15:47:31.591Z,19.90
2018-09-14T15:50:00.574Z,20.10
2018-09-14T15:52:29.271Z,21.10
2018-09-14T15:54:58.276Z,20.33
2018-09-14T15:57:27.876Z,18.13
2018-09-14T15:59:56.749Z,14.90
2018-09-14T16:02:30.215Z,22.00
2018-09-14T16:04:59.007Z,22.30
2018-09-14T16:07:28.810Z,20.70
2018-09-14T16:09:57.688Z,18.77
2018-09-14T16:12:26.922Z,15.33
2018-09-14T16:14:57.298Z,12.00
2018-09-14T16:17:26.128Z,14.77
2018-09-14T16:19:55.176Z,19.27
2018-09-14T16:22:24.116Z,12.07
2018-09-14T16:24:53.723Z,20.03
2018-09-14T16:27:22.544Z,13.40
2018-09-14T16:29:51.694Z,13.80
2018-09-14T16:32:20.844Z,18.37
2018-09-14T16:34:49.778Z,16.53
2018-09-14T16:37:18.515Z,15.10
2018-09-14T16:39:47.346Z,13.73
2018-09-14T16:42:16.420Z,15.50
2018-09-14T16:44:45.726Z,12.43
2018-09-14T16:47:14.725Z,13.57
2018-09-14T16:49:43.849Z,15.70
2018-09-14T16:52:12.793Z,17.87
2018-09-14T16:54:42.056Z,12.07
2018-09-14T16:57:10.785Z,13.63
2018-09-14T16:59:39.693Z,12.57
2018-09-14T17:02:08.519Z,13.23
2018-09-14T17:04:37.573Z,13.73
2018-09-14T17:07:06.560Z,13.00
2018-09-14T17:09:35.575Z,15.80
2018-09-14T17:12:05.312Z,14.93
2018-09-14T17:14:35.100Z,15.40
2018-09-14T17:17:03.954Z,15.00
2018-09-14T17:19:32.775Z,14.13
2018-09-14T17:22:01.746Z,14.17
2018-09-14T17:24:30.609Z,15.60
2018-09-14T17:26:59.546Z,14.93
2018-09-14T17:29:28.637Z,15.63
2018-09-14T17:31:57.611Z,16.57
2018-09-14T17:34:26.698Z,14.50
2018-09-14T17:36:55.835Z,15.30
2018-09-14T17:39:24.855Z,13.70
2018-09-14T17:42:02.162Z,14.57
2018-09-14T17:44:31.097Z,12.70
2018-09-14T17:47:00.162Z,13.20
2018-09-14T17:49:29.144Z,13.53
2018-09-14T17:51:58.001Z,12.30
2018-09-14T17:54:27.402Z,14.80
2018-09-14T17:56:57.394Z,15.60
2018-09-14T17:59:26.280Z,14.10
2018-09-14T18:01:55.332Z,14.50
2018-09-14T18:04:24.301Z,16.90
2018-09-14T18:06:53.434Z,17.67
2018-09-14T18:09:22.498Z,16.70
2018-09-14T18:11:51.436Z,19.27
2018-09-14T18:14:20.775Z,18.37
2018-09-14T18:16:49.918Z,20.03
2018-09-14T18:19:19.684Z,15.73
2018-09-14T18:21:48.743Z,16.60
2018-09-14T18:24:17.846Z,18.40
2018-09-14T18:26:46.613Z,17.63
2018-09-14T18:29:15.532Z,17.77
2018-09-14T18:31:44.517Z,15.70
2018-09-14T18:34:13.481Z,16.03
2018-09-14T18:36:42.645Z,18.77
2018-09-14T18:39:13.074Z,17.23
2018-09-14T18:41:42.192Z,18.77
2018-09-14T18:44:11.484Z,16.80
2018-09-14T18:46:40.548Z,18.50
2018-09-14T18:49:09.842Z,15.20
2018-09-14T18:51:38.866Z,16.17
2018-09-14T18:54:07.958Z,15.10
2018-09-14T18:56:37.122Z,13.80
2018-09-14T18:59:06.322Z,14.93
2018-09-14T19:01:35.704Z,13.03
2018-09-14T19:04:04.810Z,13.80
2018-09-14T19:06:33.783Z,13.70
2018-09-14T19:09:02.624Z,11.80
2018-09-14T19:11:31.760Z,14.07
2018-09-14T19:14:00.697Z,12.03
2018-09-14T19:16:29.706Z,12.10
2018-09-14T19:18:58.843Z,14.10
2018-09-14T19:21:27.952Z,14.20
2018-09-14T19:23:57.152Z,11.60
2018-09-14T19:26:26.049Z,10.37
2018-09-14T19:28:55.430Z,12.00
2018-09-14T19:31:25.181Z,11.60
2018-09-14T19:33:54.359Z,12.10
2018-09-14T19:36:23.412Z,14.00
2018-09-14T19:38:52.461Z,13.07
2018-09-14T19:41:21.583Z,12.47
2018-09-14T19:43:50.392Z,13.03
2018-09-14T19:46:19.366Z,13.70
2018-09-14T19:48:48.321Z,15.20
2018-09-14T19:51:17.192Z,13.53
2018-09-14T19:53:46.164Z,14.13
2018-09-14T19:56:15.234Z,15.80
2018-09-14T19:58:44.305Z,16.10
2018-09-14T20:01:13.440Z,15.03
2018-09-14T20:03:42.401Z,14.50
2018-09-14T20:06:11.430Z,14.10
2018-09-14T20:08:40.475Z,14.07
2018-09-14T20:11:09.257Z,14.10
2018-09-14T20:13:38.107Z,13.00
2018-09-14T20:16:07.132Z,13.27
2018-09-14T20:18:36.537Z,15.17
2018-09-14T20:21:05.470Z,12.50
2018-09-14T20:23:34.451Z,12.37
2018-09-14T20:26:03.576Z,14.60
2018-09-14T20:28:32.458Z,12.67
2018-09-14T20:31:01.773Z,12.57
2018-09-14T20:33:30.759Z,13.60
2018-09-14T20:35:59.594Z,13.20
2018-09-14T20:38:28.534Z,14.70
2018-09-14T20:40:57.640Z,13.93
2018-09-14T20:43:27.780Z,12.50
2018-09-14T20:45:56.740Z,13.43
2018-09-14T20:48:25.756Z,11.60
2018-09-14T20:50:55.056Z,12.20
2018-09-14T20:53:23.905Z,11.87
2018-09-14T20:55:53.017Z,11.27
2018-09-14T20:58:22.176Z,11.30
2018-09-14T21:00:51.446Z,10.60
2018-09-14T21:03:22.795Z,11.10
2018-09-14T21:05:51.613Z,10.87
2018-09-14T21:08:26.991Z,11.20
2018-09-14T21:10:56.167Z,10.60
2018-09-14T21:13:25.137Z,10.73
2018-09-14T21:15:54.117Z,11.37
2018-09-14T21:18:23.031Z,13.87
2018-09-14T21:20:52.390Z,13.40
2018-09-14T21:23:21.231Z,12.97
2018-09-14T21:25:50.233Z,14.57
2018-09-14T21:28:19.196Z,13.20
2018-09-14T21:30:48.240Z,12.60
2018-09-14T21:33:17.224Z,11.90
2018-09-14T21:35:46.253Z,11.80
2018-09-14T21:38:15.222Z,13.13
2018-09-14T21:40:44.295Z,12.83
2018-09-14T21:43:13.261Z,13.10
2018-09-14T21:45:42.263Z,13.47
2018-09-14T21:48:11.199Z,14.93
2018-09-14T21:50:40.093Z,14.33
2018-09-14T21:53:09.097Z,17.70
2018-09-14T21:55:38.014Z,16.47
2018-09-14T21:58:07.066Z,16.40
2018-09-14T22:00:41.031Z,14.80
2018-09-14T22:03:10.080Z,12.40
2018-09-14T22:05:39.270Z,12.87
2018-09-14T22:08:08.347Z,14.43
2018-09-14T22:10:37.325Z,15.03
2018-09-14T22:13:07.109Z,15.10
2018-09-14T22:15:36.104Z,16.03
2018-09-14T22:18:05.294Z,14.87
2018-09-14T22:20:34.096Z,15.33
2018-09-14T22:23:03.242Z,14.10
2018-09-14T22:25:32.307Z,16.50
2018-09-14T22:28:01.315Z,13.77
2018-09-14T22:30:36.522Z,14.17
2018-09-14T22:33:10.243Z,15.57
2018-09-14T22:35:39.190Z,14.83
2018-09-14T22:38:09.090Z,14.77
2018-09-14T22:40:38.401Z,15.50
2018-09-14T22:43:07.952Z,18.70
2018-09-14T22:45:36.986Z,14.17
2018-09-14T22:48:06.332Z,15.07
2018-09-14T22:50:35.656Z,14.60
2018-09-14T22:53:04.424Z,13.00
2018-09-14T22:55:33.426Z,43.67
2018-09-14T22:58:03.361Z,12.87
2018-09-14T23:00:37.659Z,14.53
2018-09-14T23:03:06.617Z,14.63
2018-09-14T23:05:35.570Z,14.40
2018-09-14T23:08:04.783Z,12.30
2018-09-14T23:10:33.775Z,11.53
2018-09-14T23:13:02.570Z,16.00
2018-09-14T23:15:31.465Z,13.40
2018-09-14T23:18:00.405Z,15.50
2018-09-14T23:20:29.307Z,12.43
2018-09-14T23:22:58.353Z,13.27
2018-09-14T23:25:27.196Z,15.80
2018-09-14T23:27:56.332Z,15.00
2018-09-14T23:30:25.140Z,26.40
2018-09-14T23:32:53.993Z,15.10
2018-09-14T23:35:22.824Z,14.17
2018-09-14T23:37:51.530Z,14.83
2018-09-14T23:40:20.357Z,13.20
2018-09-14T23:42:49.096Z,12.93
2018-09-14T23:45:18.125Z,14.87
2018-09-14T23:47:47.086Z,16.03
2018-09-14T23:50:16.052Z,16.33
2018-09-14T23:52:45.163Z,16.40
2018-09-14T23:55:14.053Z,15.07
2018-09-14T23:57:42.853Z,12.43
